sensor_id;sensor_type;location;lat;lon;timestamp;P1;durP1;ratioP1;P2;durP2;ratioP2
46719;SDS011;32452;51.382;-0.002;2023-05-10T00:02:07;8.00;;;2.83;;
46719;SDS011;32452;51.382;-0.002;2023-05-10T00:04:53;5.68;;;2.80;;
46719;SDS011;32452;51.382;-0.002;2023-05-10T00:07:38;7.57;;;2.83;;
46719;SDS011;32452;51.382;-0.002;2023-05-10T00:10:24;6.82;;;3.42;;
46719;SDS011;32452;51.382;-0.002;2023-05-10T00:13:09;10.88;;;2.97;;
46719;SDS011;32452;51.382;-0.002;2023-05-10T00:15:55;8.88;;;3.50;;
46719;SDS011;32452;51.382;-0.002;2023-05-10T00:18:40;11.32;;;3.95;;
46719;SDS011;32452;51.382;-0.002;2023-05-10T00:21:26;9.85;;;3.78;;
46719;SDS011;32452;51.382;-0.002;2023-05-10T00:24:13;8.73;;;3.70;;
46719;SDS011;32452;51.382;-0.002;2023-05-10T00:26:58;10.60;;;3.63;;
46719;SDS011;32452;51.382;-0.002;2023-05-10T00:29:45;12.48;;;4.05;;
46719;SDS011;32452;51.382;-0.002;2023-05-10T00:32:31;11.93;;;4.28;;
46719;SDS011;32452;51.382;-0.002;2023-05-10T00:35:16;11.23;;;4.57;;
46719;SDS011;32452;51.382;-0.002;2023-05-10T00:38:02;9.30;;;4.20;;
46719;SDS011;32452;51.382;-0.002;2023-05-10T00:40:47;11.15;;;4.47;;
46719;SDS011;32452;51.382;-0.002;2023-05-10T00:43:33;11.48;;;4.78;;
46719;SDS011;32452;51.382;-0.002;2023-05-10T00:46:19;12.63;;;5.45;;
46719;SDS011;32452;51.382;-0.002;2023-05-10T00:49:05;10.20;;;4.75;;
46719;SDS011;32452;51.382;-0.002;2023-05-10T00:51:51;9.38;;;4.57;;
46719;SDS011;32452;51.382;-0.002;2023-05-10T00:54:36;14.73;;;5.70;;
46719;SDS011;32452;51.382;-0.002;2023-05-10T00:57:22;12.13;;;4.97;;
46719;SDS011;32452;51.382;-0.002;2023-05-10T01:00:08;13.23;;;5.30;;
46719;SDS011;32452;51.382;-0.002;2023-05-10T01:02:54;13.00;;;6.03;;
46719;SDS011;32452;51.382;-0.002;2023-05-10T01:05:40;10.65;;;5.18;;
46719;SDS011;32452;51.382;-0.002;2023-05-10T01:08:25;11.98;;;5.07;;
46719;SDS011;32452;51.382;-0.002;2023-05-10T01:11:12;12.27;;;6.15;;
46719;SDS011;32452;51.382;-0.002;2023-05-10T01:13:57;15.40;;;6.57;;
46719;SDS011;32452;51.382;-0.002;2023-05-10T01:16:43;14.90;;;6.03;;
46719;SDS011;32452;51.382;-0.002;2023-05-10T01:19:30;11.65;;;5.97;;
46719;SDS011;32452;51.382;-0.002;2023-05-10T01:25:11;12.50;;;5.57;;
46719;SDS011;32452;51.382;-0.002;2023-05-10T01:28:12;15.65;;;5.90;;
46719;SDS011;32452;51.382;-0.002;2023-05-10T01:34:16;12.13;;;5.75;;
46719;SDS011;32452;51.382;-0.002;2023-05-10T01:37:20;12.70;;;6.07;;
46719;SDS011;32452;51.382;-0.002;2023-05-10T01:40:13;13.35;;;5.63;;
46719;SDS011;32452;51.382;-0.002;2023-05-10T01:43:26;15.40;;;6.40;;
46719;SDS011;32452;51.382;-0.002;2023-05-10T01:46:17;11.60;;;6.50;;
46719;SDS011;32452;51.382;-0.002;2023-05-10T01:49:11;13.30;;;5.70;;
46719;SDS011;32452;51.382;-0.002;2023-05-10T01:52:06;12.18;;;5.93;;
46719;SDS011;32452;51.382;-0.002;2023-05-10T01:55:04;14.20;;;6.47;;
46719;SDS011;32452;51.382;-0.002;2023-05-10T01:57:52;12.40;;;6.25;;
46719;SDS011;32452;51.382;-0.002;2023-05-10T02:01:06;13.88;;;5.50;;
46719;SDS011;32452;51.382;-0.002;2023-05-10T02:03:53;14.35;;;6.25;;
46719;SDS011;32452;51.382;-0.002;2023-05-10T02:06:40;13.30;;;5.22;;
46719;SDS011;32452;51.382;-0.002;2023-05-10T02:09:28;13.27;;;5.22;;
46719;SDS011;32452;51.382;-0.002;2023-05-10T02:12:15;12.15;;;6.10;;
46719;SDS011;32452;51.382;-0.002;2023-05-10T02:15:03;13.10;;;6.13;;
46719;SDS011;32452;51.382;-0.002;2023-05-10T02:17:50;11.10;;;5.50;;
46719;SDS011;32452;51.382;-0.002;2023-05-10T02:20:37;12.18;;;5.90;;
46719;SDS011;32452;51.382;-0.002;2023-05-10T02:23:24;11.52;;;5.22;;
46719;SDS011;32452;51.382;-0.002;2023-05-10T02:26:11;10.95;;;5.53;;
46719;SDS011;32452;51.382;-0.002;2023-05-10T02:29:00;11.02;;;4.85;;
46719;SDS011;32452;51.382;-0.002;2023-05-10T02:31:48;14.50;;;5.95;;
46719;SDS011;32452;51.382;-0.002;2023-05-10T02:34:38;11.82;;;5.72;;
46719;SDS011;32452;51.382;-0.002;2023-05-10T02:37:24;15.10;;;5.40;;
46719;SDS011;32452;51.382;-0.002;2023-05-10T02:40:11;17.38;;;5.78;;
46719;SDS011;32452;51.382;-0.002;2023-05-10T02:42:59;20.08;;;6.55;;
46719;SDS011;32452;51.382;-0.002;2023-05-10T02:45:47;15.20;;;6.20;;
46719;SDS011;32452;51.382;-0.002;2023-05-10T02:48:33;15.82;;;6.18;;
46719;SDS011;32452;51.382;-0.002;2023-05-10T02:51:19;17.48;;;6.45;;
46719;SDS011;32452;51.382;-0.002;2023-05-10T02:54:10;12.80;;;5.38;;
46719;SDS011;32452;51.382;-0.002;2023-05-10T02:57:00;15.57;;;5.95;;
46719;SDS011;32452;51.382;-0.002;2023-05-10T02:59:49;18.00;;;6.80;;
46719;SDS011;32452;51.382;-0.002;2023-05-10T03:02:34;17.60;;;6.65;;
46719;SDS011;32452;51.382;-0.002;2023-05-10T03:05:21;13.70;;;6.30;;
46719;SDS011;32452;51.382;-0.002;2023-05-10T03:08:07;16.70;;;6.75;;
46719;SDS011;32452;51.382;-0.002;2023-05-10T03:17:15;15.73;;;6.85;;
46719;SDS011;32452;51.382;-0.002;2023-05-10T03:20:21;21.17;;;7.32;;
46719;SDS011;32452;51.382;-0.002;2023-05-10T03:23:34;16.05;;;6.97;;
46719;SDS011;32452;51.382;-0.002;2023-05-10T03:26:24;15.95;;;6.45;;
46719;SDS011;32452;51.382;-0.002;2023-05-10T03:29:11;16.90;;;7.65;;
46719;SDS011;32452;51.382;-0.002;2023-05-10T03:31:58;17.63;;;7.32;;
46719;SDS011;32452;51.382;-0.002;2023-05-10T03:34:44;21.10;;;8.18;;
46719;SDS011;32452;51.382;-0.002;2023-05-10T03:37:30;18.88;;;8.02;;
46719;SDS011;32452;51.382;-0.002;2023-05-10T03:40:15;17.30;;;7.78;;
46719;SDS011;32452;51.382;-0.002;2023-05-10T03:43:02;17.00;;;8.05;;
46719;SDS011;32452;51.382;-0.002;2023-05-10T03:45:47;20.65;;;7.90;;
46719;SDS011;32452;51.382;-0.002;2023-05-10T03:48:33;16.60;;;8.13;;
46719;SDS011;32452;51.382;-0.002;2023-05-10T03:51:19;19.98;;;8.55;;
46719;SDS011;32452;51.382;-0.002;2023-05-10T03:54:04;17.90;;;8.25;;
46719;SDS011;32452;51.382;-0.002;2023-05-10T03:56:49;19.23;;;8.82;;
46719;SDS011;32452;51.382;-0.002;2023-05-10T03:59:35;18.00;;;8.07;;
46719;SDS011;32452;51.382;-0.002;2023-05-10T04:02:21;20.40;;;8.48;;
46719;SDS011;32452;51.382;-0.002;2023-05-10T04:05:06;20.58;;;8.73;;
46719;SDS011;32452;51.382;-0.002;2023-05-10T04:07:52;23.10;;;9.60;;
46719;SDS011;32452;51.382;-0.002;2023-05-10T04:10:37;21.83;;;8.25;;
46719;SDS011;32452;51.382;-0.002;2023-05-10T04:13:23;22.60;;;9.43;;
46719;SDS011;32452;51.382;-0.002;2023-05-10T04:16:08;21.17;;;9.02;;
46719;SDS011;32452;51.382;-0.002;2023-05-10T04:18:54;25.85;;;9.90;;
46719;SDS011;32452;51.382;-0.002;2023-05-10T04:21:39;20.90;;;8.82;;
46719;SDS011;32452;51.382;-0.002;2023-05-10T04:24:25;18.17;;;8.85;;
46719;SDS011;32452;51.382;-0.002;2023-05-10T04:28:17;21.50;;;8.68;;
46719;SDS011;32452;51.382;-0.002;2023-05-10T04:31:03;21.02;;;8.63;;
46719;SDS011;32452;51.382;-0.002;2023-05-10T04:33:49;20.20;;;9.68;;
46719;SDS011;32452;51.382;-0.002;2023-05-10T04:36:35;25.70;;;10.32;;
46719;SDS011;32452;51.382;-0.002;2023-05-10T04:39:21;34.75;;;11.00;;
46719;SDS011;32452;51.382;-0.002;2023-05-10T04:42:06;24.67;;;9.88;;
46719;SDS011;32452;51.382;-0.002;2023-05-10T04:44:51;24.85;;;10.90;;
46719;SDS011;32452;51.382;-0.002;2023-05-10T04:47:37;21.42;;;10.23;;
46719;SDS011;32452;51.382;-0.002;2023-05-10T04:50:23;24.85;;;9.68;;
46719;SDS011;32452;51.382;-0.002;2023-05-10T04:53:08;20.65;;;9.02;;
46719;SDS011;32452;51.382;-0.002;2023-05-10T04:55:53;24.52;;;10.25;;
46719;SDS011;32452;51.382;-0.002;2023-05-10T04:58:39;22.45;;;10.07;;
46719;SDS011;32452;51.382;-0.002;2023-05-10T05:01:24;22.15;;;10.70;;
46719;SDS011;32452;51.382;-0.002;2023-05-10T05:04:10;21.55;;;10.40;;
46719;SDS011;32452;51.382;-0.002;2023-05-10T05:06:56;27.23;;;10.93;;
46719;SDS011;32452;51.382;-0.002;2023-05-10T05:09:41;22.88;;;9.98;;
46719;SDS011;32452;51.382;-0.002;2023-05-10T05:12:27;25.70;;;10.48;;
46719;SDS011;32452;51.382;-0.002;2023-05-10T05:15:13;26.60;;;11.27;;
46719;SDS011;32452;51.382;-0.002;2023-05-10T05:18:00;29.65;;;11.40;;
46719;SDS011;32452;51.382;-0.002;2023-05-10T05:20:46;25.60;;;11.73;;
46719;SDS011;32452;51.382;-0.002;2023-05-10T05:23:31;26.42;;;9.95;;
46719;SDS011;32452;51.382;-0.002;2023-05-10T05:26:17;25.88;;;10.68;;
46719;SDS011;32452;51.382;-0.002;2023-05-10T05:29:02;26.08;;;11.30;;
46719;SDS011;32452;51.382;-0.002;2023-05-10T05:31:48;28.65;;;11.75;;
46719;SDS011;32452;51.382;-0.002;2023-05-10T05:34:34;24.25;;;12.45;;
46719;SDS011;32452;51.382;-0.002;2023-05-10T05:37:20;27.80;;;13.65;;
46719;SDS011;32452;51.382;-0.002;2023-05-10T05:40:06;28.08;;;12.55;;
46719;SDS011;32452;51.382;-0.002;2023-05-10T05:42:52;30.67;;;13.75;;
46719;SDS011;32452;51.382;-0.002;2023-05-10T05:45:37;32.30;;;14.52;;
46719;SDS011;32452;51.382;-0.002;2023-05-10T05:48:23;31.08;;;13.70;;
46719;SDS011;32452;51.382;-0.002;2023-05-10T05:51:08;25.65;;;14.18;;
46719;SDS011;32452;51.382;-0.002;2023-05-10T05:53:54;27.33;;;13.10;;
46719;SDS011;32452;51.382;-0.002;2023-05-10T05:56:40;22.40;;;12.45;;
46719;SDS011;32452;51.382;-0.002;2023-05-10T05:59:26;24.83;;;11.88;;
46719;SDS011;32452;51.382;-0.002;2023-05-10T06:02:12;23.13;;;12.20;;
46719;SDS011;32452;51.382;-0.002;2023-05-10T06:04:58;22.30;;;10.25;;
46719;SDS011;32452;51.382;-0.002;2023-05-10T06:07:43;18.15;;;10.10;;
46719;SDS011;32452;51.382;-0.002;2023-05-10T06:10:29;22.65;;;9.63;;
46719;SDS011;32452;51.382;-0.002;2023-05-10T06:13:15;19.20;;;8.85;;
46719;SDS011;32452;51.382;-0.002;2023-05-10T06:16:01;21.77;;;9.45;;
46719;SDS011;32452;51.382;-0.002;2023-05-10T06:18:47;20.20;;;9.43;;
46719;SDS011;32452;51.382;-0.002;2023-05-10T06:21:33;20.55;;;8.38;;
46719;SDS011;32452;51.382;-0.002;2023-05-10T06:24:18;18.20;;;9.73;;
46719;SDS011;32452;51.382;-0.002;2023-05-10T06:27:05;21.25;;;8.85;;
46719;SDS011;32452;51.382;-0.002;2023-05-10T06:29:51;18.77;;;7.50;;
46719;SDS011;32452;51.382;-0.002;2023-05-10T06:32:53;21.15;;;8.25;;
46719;SDS011;32452;51.382;-0.002;2023-05-10T06:35:39;18.88;;;9.02;;
46719;SDS011;32452;51.382;-0.002;2023-05-10T06:38:24;15.38;;;7.72;;
46719;SDS011;32452;51.382;-0.002;2023-05-10T06:41:10;17.42;;;8.45;;
46719;SDS011;32452;51.382;-0.002;2023-05-10T06:43:56;17.90;;;8.07;;
46719;SDS011;32452;51.382;-0.002;2023-05-10T06:46:41;17.38;;;7.63;;
46719;SDS011;32452;51.382;-0.002;2023-05-10T06:49:27;23.25;;;7.45;;
46719;SDS011;32452;51.382;-0.002;2023-05-10T06:52:13;16.75;;;7.63;;
46719;SDS011;32452;51.382;-0.002;2023-05-10T06:54:58;19.45;;;7.10;;
46719;SDS011;32452;51.382;-0.002;2023-05-10T06:57:45;17.23;;;7.07;;
46719;SDS011;32452;51.382;-0.002;2023-05-10T07:00:31;12.63;;;6.55;;
46719;SDS011;32452;51.382;-0.002;2023-05-10T07:03:16;16.58;;;6.88;;
46719;SDS011;32452;51.382;-0.002;2023-05-10T07:06:02;15.25;;;6.38;;
46719;SDS011;32452;51.382;-0.002;2023-05-10T07:08:48;19.80;;;6.75;;
46719;SDS011;32452;51.382;-0.002;2023-05-10T07:11:34;15.10;;;5.88;;
46719;SDS011;32452;51.382;-0.002;2023-05-10T07:14:20;14.07;;;6.47;;
46719;SDS011;32452;51.382;-0.002;2023-05-10T07:17:05;13.10;;;5.57;;
46719;SDS011;32452;51.382;-0.002;2023-05-10T07:19:51;14.05;;;5.93;;
46719;SDS011;32452;51.382;-0.002;2023-05-10T07:22:37;14.18;;;5.07;;
46719;SDS011;32452;51.382;-0.002;2023-05-10T07:25:22;13.68;;;4.82;;
46719;SDS011;32452;51.382;-0.002;2023-05-10T07:28:08;14.27;;;5.10;;
46719;SDS011;32452;51.382;-0.002;2023-05-10T07:30:53;13.88;;;5.13;;
46719;SDS011;32452;51.382;-0.002;2023-05-10T07:33:39;16.40;;;4.57;;
46719;SDS011;32452;51.382;-0.002;2023-05-10T07:36:25;12.77;;;5.72;;
46719;SDS011;32452;51.382;-0.002;2023-05-10T07:39:11;13.10;;;4.40;;
46719;SDS011;32452;51.382;-0.002;2023-05-10T07:42:08;11.48;;;4.53;;
46719;SDS011;32452;51.382;-0.002;2023-05-10T07:44:53;12.57;;;4.10;;
46719;SDS011;32452;51.382;-0.002;2023-05-10T07:47:39;12.35;;;3.75;;
46719;SDS011;32452;51.382;-0.002;2023-05-10T07:50:25;15.30;;;4.50;;
46719;SDS011;32452;51.382;-0.002;2023-05-10T07:53:11;11.45;;;4.25;;
46719;SDS011;32452;51.382;-0.002;2023-05-10T07:55:57;13.48;;;4.75;;
46719;SDS011;32452;51.382;-0.002;2023-05-10T07:58:43;12.63;;;4.10;;
46719;SDS011;32452;51.382;-0.002;2023-05-10T08:01:32;17.92;;;4.65;;
46719;SDS011;32452;51.382;-0.002;2023-05-10T08:04:19;12.00;;;4.30;;
46719;SDS011;32452;51.382;-0.002;2023-05-10T08:07:04;10.73;;;3.63;;
46719;SDS011;32452;51.382;-0.002;2023-05-10T08:09:50;13.68;;;4.10;;
46719;SDS011;32452;51.382;-0.002;2023-05-10T08:12:36;11.43;;;3.55;;
46719;SDS011;32452;51.382;-0.002;2023-05-10T08:15:23;16.77;;;4.05;;
46719;SDS011;32452;51.382;-0.002;2023-05-10T08:18:08;10.10;;;3.60;;
46719;SDS011;32452;51.382;-0.002;2023-05-10T08:20:54;11.27;;;3.78;;
46719;SDS011;32452;51.382;-0.002;2023-05-10T08:23:40;14.57;;;4.15;;
46719;SDS011;32452;51.382;-0.002;2023-05-10T08:26:25;9.60;;;3.55;;
46719;SDS011;32452;51.382;-0.002;2023-05-10T08:29:11;15.45;;;4.18;;
46719;SDS011;32452;51.382;-0.002;2023-05-10T08:31:57;12.30;;;3.88;;
46719;SDS011;32452;51.382;-0.002;2023-05-10T08:34:42;13.65;;;4.90;;
46719;SDS011;32452;51.382;-0.002;2023-05-10T08:37:29;10.15;;;3.35;;
46719;SDS011;32452;51.382;-0.002;2023-05-10T08:40:15;13.20;;;3.65;;
46719;SDS011;32452;51.382;-0.002;2023-05-10T08:43:04;9.35;;;3.28;;
46719;SDS011;32452;51.382;-0.002;2023-05-10T08:45:52;10.43;;;3.53;;
46719;SDS011;32452;51.382;-0.002;2023-05-10T08:48:38;11.70;;;3.25;;
46719;SDS011;32452;51.382;-0.002;2023-05-10T08:51:25;9.10;;;3.35;;
46719;SDS011;32452;51.382;-0.002;2023-05-10T08:54:11;12.65;;;3.78;;
46719;SDS011;32452;51.382;-0.002;2023-05-10T08:56:57;14.70;;;3.97;;
46719;SDS011;32452;51.382;-0.002;2023-05-10T08:59:43;9.85;;;3.53;;
46719;SDS011;32452;51.382;-0.002;2023-05-10T09:02:29;9.43;;;3.47;;
46719;SDS011;32452;51.382;-0.002;2023-05-10T09:05:15;10.70;;;4.18;;
46719;SDS011;32452;51.382;-0.002;2023-05-10T09:08:01;9.07;;;3.72;;
46719;SDS011;32452;51.382;-0.002;2023-05-10T09:10:48;11.32;;;4.13;;
46719;SDS011;32452;51.382;-0.002;2023-05-10T09:13:34;14.75;;;4.55;;
46719;SDS011;32452;51.382;-0.002;2023-05-10T09:16:20;12.93;;;5.03;;
46719;SDS011;32452;51.382;-0.002;2023-05-10T09:19:07;13.00;;;4.63;;
46719;SDS011;32452;51.382;-0.002;2023-05-10T09:21:53;11.75;;;4.30;;
46719;SDS011;32452;51.382;-0.002;2023-05-10T09:24:40;15.60;;;4.13;;
46719;SDS011;32452;51.382;-0.002;2023-05-10T09:27:30;14.15;;;4.70;;
46719;SDS011;32452;51.382;-0.002;2023-05-10T09:30:30;11.38;;;3.97;;
46719;SDS011;32452;51.382;-0.002;2023-05-10T09:33:16;9.63;;;4.10;;
46719;SDS011;32452;51.382;-0.002;2023-05-10T09:36:06;11.57;;;4.22;;
46719;SDS011;32452;51.382;-0.002;2023-05-10T09:38:53;12.48;;;4.32;;
46719;SDS011;32452;51.382;-0.002;2023-05-10T09:41:39;10.85;;;4.40;;
46719;SDS011;32452;51.382;-0.002;2023-05-10T09:44:28;12.10;;;4.18;;
46719;SDS011;32452;51.382;-0.002;2023-05-10T09:47:16;11.30;;;3.72;;
46719;SDS011;32452;51.382;-0.002;2023-05-10T09:50:04;8.15;;;3.53;;
46719;SDS011;32452;51.382;-0.002;2023-05-10T09:52:59;10.73;;;4.00;;
46719;SDS011;32452;51.382;-0.002;2023-05-10T09:55:48;10.38;;;3.67;;
46719;SDS011;32452;51.382;-0.002;2023-05-10T09:58:36;9.88;;;3.75;;
46719;SDS011;32452;51.382;-0.002;2023-05-10T10:01:25;10.85;;;3.58;;
46719;SDS011;32452;51.382;-0.002;2023-05-10T10:04:11;14.23;;;4.95;;
46719;SDS011;32452;51.382;-0.002;2023-05-10T10:07:04;10.57;;;3.75;;
46719;SDS011;32452;51.382;-0.002;2023-05-10T10:09:49;9.20;;;3.88;;
46719;SDS011;32452;51.382;-0.002;2023-05-10T10:12:35;12.60;;;4.43;;
46719;SDS011;32452;51.382;-0.002;2023-05-10T10:15:24;8.50;;;3.75;;
46719;SDS011;32452;51.382;-0.002;2023-05-10T10:18:13;12.25;;;4.88;;
46719;SDS011;32452;51.382;-0.002;2023-05-10T10:21:00;9.82;;;3.90;;
46719;SDS011;32452;51.382;-0.002;2023-05-10T10:23:47;12.95;;;4.35;;
46719;SDS011;32452;51.382;-0.002;2023-05-10T10:26:33;9.00;;;4.00;;
46719;SDS011;32452;51.382;-0.002;2023-05-10T10:29:36;7.93;;;3.78;;
46719;SDS011;32452;51.382;-0.002;2023-05-10T10:32:47;10.93;;;3.80;;
46719;SDS011;32452;51.382;-0.002;2023-05-10T10:36:12;9.68;;;4.20;;
46719;SDS011;32452;51.382;-0.002;2023-05-10T10:38:58;10.63;;;3.72;;
46719;SDS011;32452;51.382;-0.002;2023-05-10T10:41:49;8.63;;;3.35;;
46719;SDS011;32452;51.382;-0.002;2023-05-10T10:44:39;10.75;;;3.70;;
46719;SDS011;32452;51.382;-0.002;2023-05-10T10:47:27;10.10;;;3.92;;
46719;SDS011;32452;51.382;-0.002;2023-05-10T10:50:18;9.38;;;3.83;;
46719;SDS011;32452;51.382;-0.002;2023-05-10T10:53:10;10.32;;;3.47;;
46719;SDS011;32452;51.382;-0.002;2023-05-10T10:56:04;8.43;;;3.47;;
46719;SDS011;32452;51.382;-0.002;2023-05-10T10:58:52;6.78;;;3.38;;
46719;SDS011;32452;51.382;-0.002;2023-05-10T11:01:39;8.43;;;3.65;;
46719;SDS011;32452;51.382;-0.002;2023-05-10T11:04:31;10.10;;;4.07;;
46719;SDS011;32452;51.382;-0.002;2023-05-10T11:07:28;6.97;;;3.55;;
46719;SDS011;32452;51.382;-0.002;2023-05-10T11:10:13;8.90;;;3.25;;
46719;SDS011;32452;51.382;-0.002;2023-05-10T11:15:51;9.45;;;3.60;;
46719;SDS011;32452;51.382;-0.002;2023-05-10T11:18:38;8.57;;;3.28;;
46719;SDS011;32452;51.382;-0.002;2023-05-10T11:21:24;8.32;;;3.33;;
46719;SDS011;32452;51.382;-0.002;2023-05-10T11:24:13;8.48;;;3.10;;
46719;SDS011;32452;51.382;-0.002;2023-05-10T11:27:00;13.00;;;3.55;;
46719;SDS011;32452;51.382;-0.002;2023-05-10T11:29:46;9.63;;;3.08;;
46719;SDS011;32452;51.382;-0.002;2023-05-10T11:32:39;7.15;;;3.17;;
46719;SDS011;32452;51.382;-0.002;2023-05-10T11:35:27;9.13;;;2.70;;
46719;SDS011;32452;51.382;-0.002;2023-05-10T11:38:13;6.40;;;2.45;;
46719;SDS011;32452;51.382;-0.002;2023-05-10T11:40:59;6.50;;;3.00;;
46719;SDS011;32452;51.382;-0.002;2023-05-10T11:43:49;7.93;;;2.25;;
46719;SDS011;32452;51.382;-0.002;2023-05-10T11:46:36;6.78;;;2.15;;
46719;SDS011;32452;51.382;-0.002;2023-05-10T11:49:21;7.18;;;1.83;;
46719;SDS011;32452;51.382;-0.002;2023-05-10T11:52:10;3.63;;;1.77;;
46719;SDS011;32452;51.382;-0.002;2023-05-10T11:54:58;9.95;;;1.88;;
46719;SDS011;32452;51.382;-0.002;2023-05-10T11:57:44;6.22;;;2.13;;
46719;SDS011;32452;51.382;-0.002;2023-05-10T12:00:31;7.60;;;2.40;;
46719;SDS011;32452;51.382;-0.002;2023-05-10T12:03:17;6.53;;;1.83;;
46719;SDS011;32452;51.382;-0.002;2023-05-10T12:06:03;4.95;;;1.80;;
46719;SDS011;32452;51.382;-0.002;2023-05-10T12:08:49;11.00;;;2.10;;
46719;SDS011;32452;51.382;-0.002;2023-05-10T12:11:39;5.53;;;2.08;;
46719;SDS011;32452;51.382;-0.002;2023-05-10T12:14:28;5.30;;;2.00;;
46719;SDS011;32452;51.382;-0.002;2023-05-10T12:17:18;7.93;;;2.60;;
46719;SDS011;32452;51.382;-0.002;2023-05-10T12:20:13;7.28;;;2.45;;
46719;SDS011;32452;51.382;-0.002;2023-05-10T12:23:00;7.10;;;2.38;;
46719;SDS011;32452;51.382;-0.002;2023-05-10T12:25:48;5.57;;;2.10;;
46719;SDS011;32452;51.382;-0.002;2023-05-10T12:28:33;7.20;;;2.63;;
46719;SDS011;32452;51.382;-0.002;2023-05-10T12:31:20;5.38;;;2.05;;
46719;SDS011;32452;51.382;-0.002;2023-05-10T12:34:06;5.82;;;2.00;;
46719;SDS011;32452;51.382;-0.002;2023-05-10T12:36:53;6.22;;;2.20;;
46719;SDS011;32452;51.382;-0.002;2023-05-10T12:39:40;11.35;;;2.63;;
46719;SDS011;32452;51.382;-0.002;2023-05-10T12:42:26;2.70;;;1.60;;
46719;SDS011;32452;51.382;-0.002;2023-05-10T12:45:12;7.40;;;2.50;;
46719;SDS011;32452;51.382;-0.002;2023-05-10T12:47:57;6.88;;;2.40;;
46719;SDS011;32452;51.382;-0.002;2023-05-10T12:50:42;12.00;;;2.30;;
46719;SDS011;32452;51.382;-0.002;2023-05-10T12:53:28;4.40;;;1.67;;
46719;SDS011;32452;51.382;-0.002;2023-05-10T12:56:13;8.60;;;2.58;;
46719;SDS011;32452;51.382;-0.002;2023-05-10T12:58:59;10.68;;;2.47;;
46719;SDS011;32452;51.382;-0.002;2023-05-10T13:01:45;8.35;;;2.50;;
46719;SDS011;32452;51.382;-0.002;2023-05-10T13:04:30;9.27;;;2.33;;
46719;SDS011;32452;51.382;-0.002;2023-05-10T13:07:16;19.33;;;5.18;;
46719;SDS011;32452;51.382;-0.002;2023-05-10T13:10:02;10.88;;;2.83;;
46719;SDS011;32452;51.382;-0.002;2023-05-10T13:12:47;11.60;;;3.88;;
46719;SDS011;32452;51.382;-0.002;2023-05-10T13:15:32;5.72;;;2.35;;
46719;SDS011;32452;51.382;-0.002;2023-05-10T13:18:18;9.77;;;2.22;;
46719;SDS011;32452;51.382;-0.002;2023-05-10T13:21:04;6.68;;;2.80;;
46719;SDS011;32452;51.382;-0.002;2023-05-10T13:23:50;8.57;;;3.17;;
46719;SDS011;32452;51.382;-0.002;2023-05-10T13:26:36;7.53;;;3.00;;
46719;SDS011;32452;51.382;-0.002;2023-05-10T13:29:22;9.30;;;2.95;;
46719;SDS011;32452;51.382;-0.002;2023-05-10T13:32:07;9.55;;;2.17;;
46719;SDS011;32452;51.382;-0.002;2023-05-10T13:34:53;6.03;;;1.90;;
46719;SDS011;32452;51.382;-0.002;2023-05-10T13:37:39;6.18;;;1.95;;
46719;SDS011;32452;51.382;-0.002;2023-05-10T13:40:24;6.43;;;1.63;;
46719;SDS011;32452;51.382;-0.002;2023-05-10T13:43:10;4.53;;;1.73;;
46719;SDS011;32452;51.382;-0.002;2023-05-10T13:45:55;6.72;;;1.90;;
46719;SDS011;32452;51.382;-0.002;2023-05-10T13:48:41;7.03;;;1.83;;
46719;SDS011;32452;51.382;-0.002;2023-05-10T13:51:26;9.52;;;2.53;;
46719;SDS011;32452;51.382;-0.002;2023-05-10T13:54:11;7.40;;;2.40;;
46719;SDS011;32452;51.382;-0.002;2023-05-10T13:56:57;9.90;;;2.47;;
46719;SDS011;32452;51.382;-0.002;2023-05-10T13:59:44;10.32;;;2.53;;
46719;SDS011;32452;51.382;-0.002;2023-05-10T14:02:30;8.20;;;2.50;;
46719;SDS011;32452;51.382;-0.002;2023-05-10T14:05:15;9.32;;;2.60;;
46719;SDS011;32452;51.382;-0.002;2023-05-10T14:08:04;9.00;;;2.30;;
46719;SDS011;32452;51.382;-0.002;2023-05-10T14:10:50;10.15;;;2.53;;
46719;SDS011;32452;51.382;-0.002;2023-05-10T14:13:37;12.90;;;3.35;;
46719;SDS011;32452;51.382;-0.002;2023-05-10T14:16:22;9.38;;;2.38;;
46719;SDS011;32452;51.382;-0.002;2023-05-10T14:19:08;9.00;;;2.58;;
46719;SDS011;32452;51.382;-0.002;2023-05-10T14:21:53;8.73;;;2.80;;
46719;SDS011;32452;51.382;-0.002;2023-05-10T14:24:39;6.95;;;2.40;;
46719;SDS011;32452;51.382;-0.002;2023-05-10T14:27:24;11.18;;;3.00;;
46719;SDS011;32452;51.382;-0.002;2023-05-10T14:30:11;12.10;;;2.92;;
46719;SDS011;32452;51.382;-0.002;2023-05-10T14:33:01;8.68;;;4.35;;
46719;SDS011;32452;51.382;-0.002;2023-05-10T14:35:47;7.38;;;2.60;;
46719;SDS011;32452;51.382;-0.002;2023-05-10T14:38:33;8.38;;;2.63;;
46719;SDS011;32452;51.382;-0.002;2023-05-10T14:41:19;9.52;;;3.53;;
46719;SDS011;32452;51.382;-0.002;2023-05-10T14:44:04;3.72;;;1.40;;
46719;SDS011;32452;51.382;-0.002;2023-05-10T14:46:50;3.92;;;1.65;;
46719;SDS011;32452;51.382;-0.002;2023-05-10T14:49:36;4.97;;;1.48;;
46719;SDS011;32452;51.382;-0.002;2023-05-10T14:52:22;4.20;;;1.00;;
46719;SDS011;32452;51.382;-0.002;2023-05-10T14:55:08;4.93;;;0.95;;
46719;SDS011;32452;51.382;-0.002;2023-05-10T14:57:53;5.82;;;1.15;;
46719;SDS011;32452;51.382;-0.002;2023-05-10T15:00:40;3.10;;;1.30;;
46719;SDS011;32452;51.382;-0.002;2023-05-10T15:03:26;3.33;;;1.60;;
46719;SDS011;32452;51.382;-0.002;2023-05-10T15:06:13;2.28;;;0.70;;
46719;SDS011;32452;51.382;-0.002;2023-05-10T15:09:00;1.45;;;0.80;;
46719;SDS011;32452;51.382;-0.002;2023-05-10T15:11:46;3.42;;;0.90;;
46719;SDS011;32452;51.382;-0.002;2023-05-10T15:14:32;2.65;;;0.90;;
46719;SDS011;32452;51.382;-0.002;2023-05-10T15:17:18;3.60;;;1.10;;
46719;SDS011;32452;51.382;-0.002;2023-05-10T15:20:03;3.88;;;1.20;;
46719;SDS011;32452;51.382;-0.002;2023-05-10T15:22:49;2.45;;;1.00;;
46719;SDS011;32452;51.382;-0.002;2023-05-10T15:25:35;3.65;;;1.45;;
46719;SDS011;32452;51.382;-0.002;2023-05-10T15:28:22;12.52;;;2.33;;
46719;SDS011;32452;51.382;-0.002;2023-05-10T15:31:07;6.63;;;1.88;;
46719;SDS011;32452;51.382;-0.002;2023-05-10T15:33:56;4.80;;;1.60;;
46719;SDS011;32452;51.382;-0.002;2023-05-10T15:36:45;5.97;;;1.80;;
46719;SDS011;32452;51.382;-0.002;2023-05-10T15:39:31;5.28;;;1.70;;
46719;SDS011;32452;51.382;-0.002;2023-05-10T15:42:17;3.50;;;1.30;;
46719;SDS011;32452;51.382;-0.002;2023-05-10T15:45:03;4.40;;;1.70;;
46719;SDS011;32452;51.382;-0.002;2023-05-10T15:47:49;5.70;;;1.90;;
46719;SDS011;32452;51.382;-0.002;2023-05-10T15:50:34;4.65;;;1.77;;
46719;SDS011;32452;51.382;-0.002;2023-05-10T15:53:20;5.03;;;1.70;;
46719;SDS011;32452;51.382;-0.002;2023-05-10T15:56:05;4.85;;;1.80;;
46719;SDS011;32452;51.382;-0.002;2023-05-10T15:58:51;5.88;;;1.63;;
46719;SDS011;32452;51.382;-0.002;2023-05-10T16:01:37;2.83;;;1.15;;
46719;SDS011;32452;51.382;-0.002;2023-05-10T16:04:23;4.47;;;1.75;;
46719;SDS011;32452;51.382;-0.002;2023-05-10T16:07:08;6.10;;;1.42;;
46719;SDS011;32452;51.382;-0.002;2023-05-10T16:09:53;5.60;;;1.40;;
46719;SDS011;32452;51.382;-0.002;2023-05-10T16:12:40;7.25;;;1.73;;
46719;SDS011;32452;51.382;-0.002;2023-05-10T16:15:25;8.50;;;2.25;;
46719;SDS011;32452;51.382;-0.002;2023-05-10T16:18:11;7.63;;;2.10;;
46719;SDS011;32452;51.382;-0.002;2023-05-10T16:20:57;5.47;;;2.03;;
46719;SDS011;32452;51.382;-0.002;2023-05-10T16:23:43;4.47;;;1.40;;
46719;SDS011;32452;51.382;-0.002;2023-05-10T16:26:30;2.95;;;1.10;;
46719;SDS011;32452;51.382;-0.002;2023-05-10T16:29:16;6.05;;;1.50;;
46719;SDS011;32452;51.382;-0.002;2023-05-10T16:32:01;6.70;;;1.60;;
46719;SDS011;32452;51.382;-0.002;2023-05-10T16:34:47;7.20;;;2.08;;
46719;SDS011;32452;51.382;-0.002;2023-05-10T16:37:34;5.68;;;1.90;;
46719;SDS011;32452;51.382;-0.002;2023-05-10T16:40:20;8.40;;;1.80;;